Latest Weather Observations for Cape Naturaliste

IDW60801

Issued at 7:03 pm WST Saturday 29 April 2017 (issued every 30 minutes, with the page automatically refreshed every 10 minutes)

About weather observations | Map of weather stations | Latest weather observations for WA | Other Formats
Station Details ID: 009519 Name: CAPE NATURALISTE Lat: -33.54 Lon: 115.02 Height: 109.0 m
Data from the previous 72 hours. | See also: Recent months at Cape Naturaliste
Date/Time
WST
Temp
°C
App
Temp
°C
Dew
Point
°C
Rel
Hum
%
Delta-T
°C
Wind Press
QNH
hPa
Press
MSL
hPa
Rain since
9am
mm
Dir  Spd
km/h
Gust
km/h
Spd
kts
Gust
kts
29/07:00pm 18.1 16.4 14.6 80 2.0 SW 17 22 9 12 1022.2 1022.0 0.0
29/06:30pm 18.1 16.7 14.6 80 2.0 SW 15 20 8 11 1022.0 1021.8 0.0
29/06:00pm 18.2 16.3 14.3 78 2.2 SW 17 19 9 10 1021.9 1021.7 0.0
29/05:30pm 18.9 16.8 13.7 72 3.0 SW 17 20 9 11 1021.9 1021.7 0.0
29/05:00pm 20.0 18.1 14.1 69 3.4 SW 17 22 9 12 1021.9 1021.7 0.0
29/04:30pm 21.1 20.0 14.3 65 4.0 SW 13 19 7 10 1021.9 1021.7 0.0
29/04:00pm 21.9 21.1 14.0 61 4.6 WSW 11 15 6 8 1021.9 1021.7 0.0
29/03:30pm 22.5 21.2 13.6 57 5.2 WSW 13 19 7 10 1021.9 1021.7 0.0
29/03:00pm 23.0 21.7 12.6 52 5.9 W 11 15 6 8 1022.0 1021.8 0.0
29/02:30pm 22.8 21.2 11.5 49 6.4 NW 11 15 6 8 1022.1 1021.9 0.0
29/02:00pm 22.9 22.0 12.5 52 5.9 NNE 9 13 5 7 1022.4 1022.2 0.0
29/01:30pm 22.7 21.1 11.7 49 6.2 NE 11 15 6 8 1022.4 1022.2 0.0
29/01:00pm 22.9 21.6 11.3 48 6.5 NE 9 15 5 8 1022.7 1022.5 0.0
29/12:30pm 22.5 20.6 11.9 51 6.0 NE 13 17 7 9 1023.0 1022.8 0.0
29/12:00pm 22.4 21.0 12.1 52 5.8 NE 11 17 6 9 1023.7 1023.5 0.0
29/11:30am 21.8 20.1 12.4 55 5.3 ENE 13 17 7 9 1023.7 1023.5 0.0
29/11:00am 22.0 20.6 12.3 54 5.5 ENE 11 17 6 9 1024.0 1023.8 0.0
29/10:30am 21.2 19.8 12.3 57 5.0 E 11 15 6 8 1024.3 1024.1 0.0
29/10:00am 20.7 18.6 12.4 59 4.7 ENE 15 19 8 10 1024.4 1024.2 0.0
29/09:30am 20.2 18.2 12.7 62 4.3 E 15 20 8 11 1024.6 1024.4 0.0
29/09:00am 18.9 16.9 14.0 73 2.8 ESE 17 20 9 11 1024.8 1024.6 0.0
29/08:30am 17.5 15.4 13.6 78 2.2 E 17 20 9 11 1024.6 1024.4 0.0
29/08:00am 16.0 13.9 13.7 86 1.3 ESE 17 20 9 11 1024.1 1023.9 0.0
29/07:30am 14.3 11.8 12.2 87 1.1 ESE 17 20 9 11 1023.9 1023.7 0.0
29/07:00am 13.2 10.3 11.1 87 1.1 ESE 17 19 9 10 1023.7 1023.5 0.0
29/06:30am 13.3 9.8 11.0 86 1.2 ESE 20 24 11 13 1023.3 1023.1 0.0
29/06:00am 13.8 10.4 11.1 84 1.4 ESE 20 32 11 17 1023.6 1023.4 0.0
29/05:30am 14.4 9.7 11.9 85 1.4 SE 28 32 15 17 1023.7 1023.5 0.0
29/05:00am 14.4 9.8 12.3 87 1.1 SE 28 32 15 17 1023.7 1023.5 0.0
29/04:30am 13.7 10.6 11.6 87 1.1 ESE 19 22 10 12 1023.9 1023.7 0.0
29/04:00am 14.1 10.9 12.0 87 1.1 ESE 20 24 11 13 1023.8 1023.6 0.0
29/03:30am 14.2 10.7 12.1 87 1.1 ESE 22 26 12 14 1023.9 1023.7 0.0
29/03:00am 14.6 10.8 12.5 87 1.1 SE 24 30 13 16 1024.0 1023.8 0.0
29/02:30am 14.5 11.0 12.2 86 1.3 SE 22 26 12 14 1024.2 1024.0 0.0
29/02:00am 15.1 11.4 12.8 86 1.3 ESE 24 30 13 16 1024.3 1024.1 0.0
29/01:30am 15.5 12.4 13.3 87 1.2 ESE 22 28 12 15 1024.4 1024.2 0.0
29/01:00am 15.5 12.3 13.2 86 1.3 ESE 22 28 12 15 1024.6 1024.4 0.0
29/12:30am 15.5 12.3 13.2 86 1.3 SE 22 26 12 14 1024.8 1024.6 0.0
29/12:00am 15.6 12.1 13.4 87 1.2 SE 24 32 13 17 1024.8 1024.6 0.0
 
Date/Time
WST
Temp
°C
App
Temp
°C
Dew
Point
°C
Rel
Hum
%
Delta-T
°C
Wind Press
QNH
hPa
Press
MSL
hPa
Rain since
9am
mm
Dir  Spd
km/h
Gust
km/h
Spd
kts
Gust
kts
28/11:30pm 15.8 12.7 13.5 86 1.3 SE 22 30 12 16 1025.0 1024.8 0.0
28/11:00pm 16.1 12.7 13.6 85 1.4 SE 24 30 13 16 1025.1 1024.9 0.0
28/10:30pm 16.4 13.4 13.7 84 1.5 SE 22 30 12 16 1025.3 1025.1 0.0
28/10:00pm 16.6 13.3 13.9 84 1.5 SSE 24 32 13 17 1025.3 1025.1 0.0
28/09:30pm 16.7 13.3 13.8 83 1.6 SSE 24 32 13 17 1025.2 1025.0 0.0
28/09:00pm 16.9 13.5 13.6 81 1.9 SSE 24 33 13 18 1025.2 1025.0 0.0
28/08:30pm 17.3 13.9 13.6 79 2.1 SSE 24 32 13 17 1025.3 1025.1 0.0
28/08:00pm 17.5 14.5 13.6 78 2.2 SSE 22 30 12 16 1025.2 1025.0 0.0
28/07:30pm 17.7 15.1 13.2 75 2.5 SSE 19 26 10 14 1025.1 1024.9 0.0
28/07:00pm 18.3 15.6 13.4 73 2.8 SSE 20 28 11 15 1024.9 1024.7 0.0
28/06:30pm 18.7 15.9 13.3 71 3.1 SSE 20 28 11 15 1024.7 1024.5 0.0
28/06:00pm 19.1 17.3 13.3 69 3.3 SSE 15 19 8 10 1024.4 1024.2 0.0
28/05:30pm 20.4 19.4 14.5 69 3.5 S 13 20 7 11 1024.2 1024.0 0.0
28/05:00pm 21.3 19.9 15.6 70 3.4 SSW 17 22 9 12 1024.1 1023.9 0.0
28/04:30pm 21.7 19.7 15.5 68 3.7 SSW 20 30 11 16 1024.2 1024.0 0.0
28/04:00pm 23.0 21.4 15.1 61 4.7 SSW 17 26 9 14 1024.1 1023.9 0.0
28/03:30pm 22.6 20.1 15.2 63 4.4 SSW 22 32 12 17 1024.2 1024.0 0.0
28/03:00pm 21.8 17.7 14.9 65 4.1 SSW 30 41 16 22 1024.3 1024.1 0.0
28/02:30pm 22.6 19.2 15.7 65 4.2 SSW 28 37 15 20 1024.4 1024.2 0.0
28/02:00pm 23.6 22.0 14.9 58 5.2 SW 17 22 9 12 1024.5 1024.3 0.0
28/01:30pm 23.4 22.5 13.8 54 5.6 WSW 11 17 6 9 1024.7 1024.5 0.0
28/01:00pm 22.8 21.6 11.5 49 6.3 ESE 9 15 5 8 1025.0 1024.8 0.0
28/12:30pm 23.2 20.8 12.8 52 6.0 ENE 17 22 9 12 1025.4 1025.2 0.0
28/12:00pm 22.8 19.8 11.8 50 6.2 E 19 26 10 14 1025.9 1025.7 0.0
28/11:30am 22.7 19.7 12.0 50 6.1 E 19 28 10 15 1026.1 1025.9 0.0
28/11:00am 23.0 20.2 12.6 52 5.9 SE 19 28 10 15 1026.3 1026.1 0.0
28/10:30am 21.8 18.4 12.6 56 5.2 ESE 22 30 12 16 1026.6 1026.4 0.0
28/10:00am 21.3 18.2 13.5 61 4.5 SE 22 33 12 18 1026.6 1026.4 0.0
28/09:30am 20.2 16.9 12.7 62 4.3 SE 22 30 12 16 1026.8 1026.6 0.0
28/09:00am 19.6 16.9 12.8 65 3.8 SE 19 28 10 15 1027.0 1026.8 0.0
28/08:30am 18.2 15.6 13.1 72 2.9 SE 19 24 10 13 1026.9 1026.7 0.0
28/08:00am 16.7 13.8 13.0 79 2.1 SE 20 28 11 15 1026.6 1026.4 0.0
28/07:30am 15.3 12.2 12.2 82 1.7 SE 20 26 11 14 1026.1 1025.9 0.0
28/07:00am 14.6 11.3 11.7 83 1.6 SE 20 24 11 13 1025.9 1025.7 0.0
28/06:30am 14.9 11.8 12.2 84 1.5 SE 20 26 11 14 1025.8 1025.6 0.0
28/06:00am 14.4 11.4 11.9 85 1.3 SE 19 22 10 12 1025.7 1025.5 0.0
28/05:30am 14.5 11.4 12.2 86 1.3 SE 20 24 11 13 1025.8 1025.6 0.0
28/05:00am 14.2 11.3 12.2 88 1.1 SE 19 24 10 13 1025.7 1025.5 0.0
28/04:30am 14.0 11.0 12.0 88 1.1 SE 19 22 10 12 1025.6 1025.4 0.0
28/04:00am 13.9 11.3 12.1 89 1.0 SE 17 22 9 12 1025.6 1025.4 0.0
28/03:30am 13.9 10.9 12.1 89 1.0 SE 19 22 10 12 1025.7 1025.5 0.0
28/03:00am 14.2 11.4 12.6 90 0.9 SE 19 20 10 11 1025.8 1025.6 0.0
28/02:30am 14.4 11.6 12.6 89 1.0 SE 19 22 10 12 1025.6 1025.4 0.0
28/02:00am 14.8 12.1 13.0 89 1.0 SE 19 22 10 12 1025.6 1025.4 0.0
28/01:30am 15.1 12.8 13.1 88 1.1 SE 17 22 9 12 1025.7 1025.5 0.0
28/01:00am 15.3 12.7 13.2 87 1.2 SE 19 22 10 12 1025.9 1025.7 0.0
28/12:30am 15.8 13.3 13.5 86 1.3 SE 19 22 10 12 1025.9 1025.7 0.0
28/12:00am 16.2 14.0 13.3 83 1.6 SE 17 22 9 12 1025.8 1025.6 0.0
 
Date/Time
WST
Temp
°C
App
Temp
°C
Dew
Point
°C
Rel
Hum
%
Delta-T
°C
Wind Press
QNH
hPa
Press
MSL
hPa
Rain since
9am
mm
Dir  Spd
km/h
Gust
km/h
Spd
kts
Gust
kts
27/11:30pm 17.0 13.7 13.9 82 1.8 S 24 30 13 16 1025.6 1025.4 0.0
27/11:00pm 17.0 13.7 13.9 82 1.8 S 24 30 13 16 1025.8 1025.6 0.0
27/10:30pm 16.8 14.2 13.9 83 1.7 S 20 30 11 16 1025.9 1025.7 0.0
27/10:00pm 17.1 14.6 14.2 83 1.7 S 20 30 11 16 1026.0 1025.8 0.0
27/09:30pm 17.3 14.2 14.6 84 1.6 S 24 32 13 17 1025.9 1025.7 0.0
27/09:00pm 17.2 14.7 14.1 82 1.8 S 20 28 11 15 1025.9 1025.7 0.0
27/08:30pm 17.4 14.6 14.3 82 1.8 S 22 28 12 15 1025.8 1025.6 0.0
27/08:00pm 17.6 13.7 14.3 81 1.9 S 28 35 15 19 1025.7 1025.5 0.0
27/07:30pm 17.4 13.8 14.1 81 1.9 SSW 26 33 14 18 1025.6 1025.4 0.0
27/07:00pm 17.6 14.4 14.3 81 1.9 SSW 24 32 13 17 1025.4 1025.2 0.0
27/06:30pm 17.9 14.8 14.4 80 2.0 SSW 24 33 13 18 1025.2 1025.0 0.0
27/06:00pm 18.2 15.1 14.5 79 2.1 SSW 24 33 13 18 1025.0 1024.8 0.0
27/05:30pm 18.7 15.1 14.2 75 2.6 SSW 26 35 14 19 1025.0 1024.8 0.0
27/05:00pm 19.7 16.6 14.5 72 3.0 SSW 24 33 13 18 1025.0 1024.8 0.0
27/04:30pm 20.3 17.2 14.4 69 3.4 SSW 24 33 13 18 1024.9 1024.7 0.0
27/04:00pm 20.8 17.4 14.7 68 3.6 SSW 26 35 14 19 1025.0 1024.8 0.0
27/03:30pm 21.5 18.4 14.6 65 4.1 SSW 24 35 13 19 1025.0 1024.8 0.0
27/03:00pm 22.0 18.7 13.9 60 4.7 SW 24 32 13 17 1025.0 1024.8 0.0
27/02:30pm 21.9 18.4 11.0 50 6.0 SW 20 26 11 14 1024.9 1024.7 0.0
27/02:00pm 22.4 19.3 10.2 46 6.7 SW 17 26 9 14 1024.9 1024.7 0.0
27/01:30pm 22.8 20.1 10.3 45 6.9 SW 15 22 8 12 1024.9 1024.7 0.0
27/01:00pm 22.5 20.2 10.6 47 6.5 SW 13 17 7 9 1025.1 1024.9 0.0
27/12:30pm 22.6 20.4 9.4 43 7.1 SW 11 17 6 9 1025.6 1025.4 0.0
27/12:00pm 22.1 21.9 12.9 56 5.3 NNE 6 11 3 6 1026.1 1025.9 0.0
27/11:30am 20.9 19.7 11.5 55 5.2 NE 9 13 5 7 1026.4 1026.2 0.0
27/11:00am 21.8 21.0 11.8 53 5.6 N 7 11 4 6 1026.6 1026.4 0.0
27/10:30am 21.4 20.4 10.9 51 5.8 WSW 7 9 4 5 1026.8 1026.6 0.0
27/10:00am 21.2 20.2 10.4 50 5.9 SSW 6 13 3 7 1027.0 1026.8 0.0
27/09:30am 19.8 18.7 10.8 56 4.9 SE 7 11 4 6 1027.2 1027.0 0.0
27/09:00am 18.8 16.6 10.9 60 4.3 ESE 13 17 7 9 1027.3 1027.1 0.0
27/08:30am 17.9 15.7 10.8 63 3.8 SE 13 17 7 9 1027.4 1027.2 0.0
27/08:00am 16.0 13.0 10.7 71 2.8 SE 17 20 9 11 1027.2 1027.0 0.0
27/07:30am 14.4 11.3 10.2 76 2.2 SE 17 20 9 11 1027.0 1026.8 0.0
27/07:00am 13.5 10.2 9.7 78 1.9 SE 17 20 9 11 1026.9 1026.7 0.0
27/06:30am 13.5 9.8 9.6 77 2.0 SE 19 22 10 12 1027.0 1026.8 0.0
27/06:00am 13.6 10.4 9.8 78 2.0 SE 17 19 9 10 1026.9 1026.7 0.0
27/05:30am 13.6 10.0 10.0 79 1.9 SE 19 22 10 12 1026.8 1026.6 0.0
27/05:00am 13.7 10.1 9.9 78 2.0 SE 19 20 10 11 1026.8 1026.6 0.0
27/04:30am 13.8 10.2 10.0 78 2.0 SE 19 22 10 12 1026.7 1026.5 0.0
27/04:00am 14.0 10.8 10.0 77 2.1 SE 17 20 9 11 1026.8 1026.6 0.0
27/03:30am 14.2 10.6 10.0 76 2.2 SE 19 22 10 12 1026.6 1026.4 0.0
27/03:00am 14.3 11.2 10.3 77 2.1 SE 17 20 9 11 1026.8 1026.6 0.0
27/02:30am 14.1 10.9 10.1 77 2.1 SE 17 20 9 11 1026.8 1026.6 0.0
27/02:00am 14.2 10.7 10.2 77 2.1 SE 19 24 10 13 1026.8 1026.6 0.0
27/01:30am 13.9 9.7 9.9 77 2.1 SSE 22 30 12 16 1026.7 1026.5 0.0
27/01:00am 13.8 10.1 10.0 78 2.0 SE 20 26 11 14 1026.9 1026.7 0.0
27/12:30am 13.7 9.5 9.9 78 2.0 SE 22 26 12 14 1027.0 1026.8 0.0
27/12:00am 13.7 9.9 9.7 77 2.1 SE 20 26 11 14 1027.1 1026.9 0.0
 
Date/Time
WST
Temp
°C
App
Temp
°C
Dew
Point
°C
Rel
Hum
%
Delta-T
°C
Wind Press
QNH
hPa
Press
MSL
hPa
Rain since
9am
mm
Dir  Spd
km/h
Gust
km/h
Spd
kts
Gust
kts
26/11:30pm 14.3 10.2 10.1 76 2.2 SSE 22 28 12 15 1027.1 1026.9 0.0
26/11:00pm 14.2 10.3 9.4 73 2.5 SSE 20 28 11 15 1027.2 1027.0 0.0
26/10:30pm 14.7 10.8 9.3 70 2.8 SSE 20 26 11 14 1027.3 1027.1 0.0
26/10:00pm 14.9 10.6 7.9 63 3.5 S 20 26 11 14 1027.2 1027.0 0.0
26/09:30pm 14.0 10.9 7.1 63 3.4 S 13 17 7 9 1027.2 1027.0 0.0
26/09:00pm 14.6 10.8 7.6 63 3.5 SSE 17 20 9 11 1027.2 1027.0 0.0
26/08:30pm 14.3 9.7 5.7 56 4.1 S 19 22 10 12 1027.1 1026.9 0.0
26/08:00pm 14.5 10.9 9.7 73 2.5 S 19 26 10 14 1027.0 1026.8 0.0
26/07:30pm 15.2 12.2 10.8 75 2.3 SSW 17 20 9 11 1026.8 1026.6 0.0

Other Formats:

Comma delimited format used in spreadsheet applications
http://www.bom.gov.au/fwo/IDW60801/IDW60801.94600.axf

JavaScript Object Notation format (JSON) in row-major order
http://www.bom.gov.au/fwo/IDW60801/IDW60801.94600.json